Time;durP1;ratioP1;P1;durP2;ratioP2;P2;SDS_P1;SDS_P2;PMS_P1;PMS_P2;Temp;Humidity;BMP_temperature;BMP_pressure;BME280_temperature;BME280_humidity;BME280_pressure;Samples;Min_cycle;Max_cycle;Signal;HPM_P1;HPM_P2
2022/07/03 00:04:22;;;;;;;4.10;2.30;;;;;;;21.67;48.34;100259.41;10344204;28;20251;-72
2022/07/03 00:09:23;;;;;;;3.25;2.40;;;;;;;21.68;47.98;100275.44;10344605;28;20058;-71
2022/07/03 00:14:25;;;;;;;3.10;2.47;;;;;;;21.65;48.43;100277.72;10355789;28;20060;-71
2022/07/03 00:19:26;;;;;;;3.20;2.97;;;;;;;21.61;48.47;100271.00;10349094;28;20056;-71
2022/07/03 00:24:58;;;;;;;2.63;2.40;;;;;;;21.50;48.78;100262.38;10345408;28;20235;-71
2022/07/03 00:30:02;;;;;;;3.17;2.63;;;;;;;21.48;49.34;100259.00;10347796;28;20092;-71
2022/07/03 00:35:05;;;;;;;4.50;2.83;;;;;;;21.45;49.62;100269.38;10348431;28;20892;-71
2022/07/03 00:40:07;;;;;;;2.53;2.33;;;;;;;21.37;49.94;100276.59;10347824;28;20048;-71
2022/07/03 00:45:09;;;;;;;5.15;2.45;;;;;;;21.29;50.12;100265.91;10346706;28;20053;-71
2022/07/03 00:50:10;;;;;;;2.17;1.85;;;;;;;21.18;50.42;100253.72;10346427;28;20460;-71
2022/07/03 00:55:16;;;;;;;3.78;2.22;;;;;;;21.16;50.56;100257.66;10344621;28;20041;-71
2022/07/03 01:00:18;;;;;;;2.38;1.92;;;;;;;21.11;51.26;100255.53;10354437;28;20127;-70
2022/07/03 01:05:42;;;;;;;3.58;1.80;;;;;;;21.06;51.38;100252.53;10347347;28;20057;-71
2022/07/03 01:11:16;;;;;;;2.38;2.00;;;;;;;20.91;51.08;100235.53;10348845;28;22966;-70
2022/07/03 01:16:51;;;;;;;2.60;1.75;;;;;;;20.91;51.66;100249.06;10361717;28;20158;-71
2022/07/03 01:21:52;;;;;;;4.72;1.90;;;;;;;20.92;51.21;100262.41;10346485;28;20042;-71
2022/07/03 01:27:00;;;;;;;2.35;1.75;;;;;;;20.84;51.54;100249.84;10350479;28;20050;-70
2022/07/03 01:32:03;;;;;;;2.38;2.17;;;;;;;20.79;51.60;100251.41;10346193;28;20865;-71
2022/07/03 01:37:06;;;;;;;2.35;2.03;;;;;;;20.77;52.05;100254.31;10345966;28;20143;-70
2022/07/03 01:42:08;;;;;;;2.53;2.03;;;;;;;20.77;52.24;100254.31;10347481;28;20554;-71
2022/07/03 01:47:10;;;;;;;1.85;1.75;;;;;;;20.75;52.06;100256.38;10345886;28;20120;-71
2022/07/03 01:52:11;;;;;;;2.08;1.77;;;;;;;20.64;51.81;100238.75;10339726;28;20140;-71
2022/07/03 01:57:40;;;;;;;2.42;2.08;;;;;;;20.56;51.88;100233.44;10341385;28;20693;-71
2022/07/03 02:02:50;;;;;;;1.80;1.70;;;;;;;20.58;52.28;100239.53;10346001;28;20053;-71
2022/07/03 02:08:23;;;;;;;2.92;1.70;;;;;;;20.48;52.84;100223.59;10342703;28;20185;-71
2022/07/03 02:13:28;;;;;;;2.15;1.95;;;;;;;20.40;52.59;100221.00;10339653;28;20136;-71
2022/07/03 02:18:35;;;;;;;1.80;1.70;;;;;;;20.33;53.34;100203.84;10347234;28;20064;-71
2022/07/03 02:24:03;;;;;;;2.00;1.80;;;;;;;20.30;52.98;100215.88;10341757;28;20132;-71
2022/07/03 02:29:07;;;;;;;2.67;1.77;;;;;;;20.17;53.56;100213.00;10331290;28;20205;-71
2022/07/03 02:34:14;;;;;;;3.35;2.22;;;;;;;20.20;53.61;100222.59;10338265;28;20196;-71
2022/07/03 02:39:45;;;;;;;2.95;1.80;;;;;;;20.17;53.84;100233.78;10344450;28;20836;-70
2022/07/03 02:44:51;;;;;;;1.75;1.50;;;;;;;20.12;53.79;100229.78;10341793;28;20119;-71
2022/07/03 02:49:58;;;;;;;1.70;1.60;;;;;;;20.14;54.09;100238.50;10340969;28;20179;-71
2022/07/03 02:55:10;;;;;;;2.08;1.77;;;;;;;20.13;54.10;100236.00;10338927;28;20157;-71
2022/07/03 03:00:12;;;;;;;2.08;1.80;;;;;;;20.13;53.59;100244.97;10341503;28;20064;-71
2022/07/03 03:05:32;;;;;;;3.10;2.00;;;;;;;20.10;54.17;100237.22;10342341;28;20698;-70
2022/07/03 03:10:37;;;;;;;2.05;1.58;;;;;;;20.07;54.13;100248.41;10340815;28;20060;-70
2022/07/03 03:15:45;;;;;;;1.90;1.80;;;;;;;20.04;54.38;100253.34;10347945;28;20379;-70
2022/07/03 03:20:48;;;;;;;2.85;1.83;;;;;;;20.00;54.39;100247.47;10351216;28;20042;-70
2022/07/03 03:25:52;;;;;;;1.90;1.80;;;;;;;19.87;54.04;100241.88;10354532;28;20156;-70
2022/07/03 03:30:53;;;;;;;3.10;1.58;;;;;;;19.85;54.34;100241.22;10349781;28;20053;-71
2022/07/03 03:35:55;;;;;;;2.72;1.48;;;;;;;19.85;54.59;100241.22;10354696;28;20049;-68
2022/07/03 03:40:57;;;;;;;2.25;1.67;;;;;;;19.84;55.05;100247.66;10349645;28;20158;-70
2022/07/03 03:46:00;;;;;;;2.05;1.88;;;;;;;19.81;54.91;100256.13;10347021;28;20049;-70
2022/07/03 03:51:04;;;;;;;1.75;1.65;;;;;;;19.75;55.08;100255.78;10346947;28;20041;-71
2022/07/03 03:56:08;;;;;;;2.05;1.85;;;;;;;19.78;55.43;100270.81;10350774;28;20072;-71
2022/07/03 04:01:12;;;;;;;1.60;1.50;;;;;;;19.80;54.93;100267.94;10344261;28;20045;-73
2022/07/03 04:06:13;;;;;;;2.65;1.70;;;;;;;19.77;54.27;100267.28;10345568;28;20475;-70
2022/07/03 04:11:14;;;;;;;2.45;1.10;;;;;;;19.69;54.29;100263.78;10344982;28;20140;-70
2022/07/03 04:16:16;;;;;;;2.42;1.20;;;;;;;19.71;54.32;100276.09;10347410;28;20075;-70
2022/07/03 04:21:17;;;;;;;1.70;1.60;;;;;;;19.67;54.58;100261.28;10345222;28;20708;-69
2022/07/03 04:26:19;;;;;;;2.72;1.50;;;;;;;19.71;54.71;100265.28;10343767;28;20053;-69
2022/07/03 04:31:21;;;;;;;2.40;1.88;;;;;;;19.65;55.31;100263.31;10344243;28;20088;-70
2022/07/03 04:36:23;;;;;;;2.80;1.85;;;;;;;19.68;55.61;100281.00;10341314;28;20118;-70
2022/07/03 04:41:24;;;;;;;2.67;1.70;;;;;;;19.65;55.83;100286.75;10348905;28;20131;-71
2022/07/03 04:46:26;;;;;;;1.75;1.65;;;;;;;19.65;56.29;100281.38;10352823;28;20057;-72
2022/07/03 04:51:27;;;;;;;2.25;2.05;;;;;;;19.60;55.37;100284.63;10359957;28;20128;-70
2022/07/03 04:56:29;;;;;;;2.70;1.83;;;;;;;19.50;56.64;100289.41;10349846;28;20593;-70
2022/07/03 05:01:30;;;;;;;2.70;1.98;;;;;;;19.52;56.89;100282.00;10336418;28;20772;-70
2022/07/03 05:06:31;;;;;;;2.63;2.10;;;;;;;19.59;56.95;100286.47;10348120;28;20056;-70
2022/07/03 05:11:33;;;;;;;2.95;1.83;;;;;;;19.58;56.81;100287.50;10341560;28;20049;-70
2022/07/03 05:16:34;;;;;;;2.63;2.20;;;;;;;19.68;57.18;100279.16;10345475;28;20060;-71
2022/07/03 05:21:36;;;;;;;2.80;1.83;;;;;;;19.77;57.14;100293.41;10345367;28;20060;-70
2022/07/03 05:26:37;;;;;;;2.00;1.80;;;;;;;19.82;57.00;100295.63;10357010;28;20050;-70
2022/07/03 05:31:39;;;;;;;2.92;1.70;;;;;;;19.89;56.41;100299.25;10343670;28;20730;-71
2022/07/03 05:36:40;;;;;;;2.83;1.92;;;;;;;19.97;56.87;100301.88;10338766;28;20163;-70
2022/07/03 05:41:41;;;;;;;2.20;1.85;;;;;;;19.98;56.48;100302.69;10344713;28;20063;-70
2022/07/03 05:46:43;;;;;;;2.15;1.90;;;;;;;20.14;56.17;100306.06;10344149;28;20210;-72
2022/07/03 05:51:44;;;;;;;1.77;1.60;;;;;;;20.20;55.60;100295.56;10341590;28;20664;-69
2022/07/03 05:56:46;;;;;;;3.40;1.48;;;;;;;20.35;55.63;100309.91;10341413;28;20069;-71
2022/07/03 06:01:48;;;;;;;2.45;1.95;;;;;;;20.40;54.37;100309.34;10339405;28;20073;-70
2022/07/03 06:06:49;;;;;;;2.10;1.80;;;;;;;20.51;53.76;100302.63;10328310;28;20053;-67
2022/07/03 06:11:51;;;;;;;3.40;2.00;;;;;;;20.60;53.69;100302.34;10327882;28;20147;-70
2022/07/03 06:16:52;;;;;;;2.13;1.65;;;;;;;20.73;52.45;100304.44;10345519;28;20057;-68
2022/07/03 06:21:54;;;;;;;2.28;1.48;;;;;;;20.78;52.38;100304.69;10338788;28;20060;-67
2022/07/03 06:26:55;;;;;;;2.72;1.80;;;;;;;20.92;52.09;100305.69;10332454;28;20125;-69
2022/07/03 06:31:56;;;;;;;2.85;1.92;;;;;;;21.08;52.03;100310.03;10339393;28;20675;-70
2022/07/03 06:36:58;;;;;;;3.33;2.35;;;;;;;21.21;51.85;100311.22;10338406;28;20058;-68
2022/07/03 06:41:59;;;;;;;2.53;2.33;;;;;;;21.28;52.05;100312.13;10333320;28;20049;-69
2022/07/03 06:47:04;;;;;;;3.47;2.03;;;;;;;21.32;52.04;100294.47;10335444;28;20045;-69
2022/07/03 06:52:05;;;;;;;2.80;2.45;;;;;;;21.58;51.90;100307.44;10341178;28;20110;-69
2022/07/03 06:57:07;;;;;;;3.28;2.15;;;;;;;21.59;51.94;100302.84;10347216;28;20049;-70
2022/07/03 07:02:08;;;;;;;3.22;2.60;;;;;;;21.75;51.25;100299.88;10346723;28;20055;-68
2022/07/03 07:07:10;;;;;;;2.10;1.90;;;;;;;21.75;52.15;100299.88;10344831;28;20047;-69
2022/07/03 07:12:11;;;;;;;2.58;2.33;;;;;;;21.92;51.07;100292.31;10345590;28;20060;-69
2022/07/03 07:17:13;;;;;;;2.33;1.77;;;;;;;22.10;51.43;100308.06;10346839;28;20063;-72
2022/07/03 07:22:14;;;;;;;2.95;2.08;;;;;;;22.38;50.53;100299.09;10342547;28;20061;-70
2022/07/03 07:27:16;;;;;;;1.63;1.52;;;;;;;22.51;49.47;100301.03;10340482;28;20095;-71
2022/07/03 07:32:17;;;;;;;2.10;1.55;;;;;;;22.60;49.28;100303.38;10352716;28;20085;-70
2022/07/03 07:37:18;;;;;;;2.33;1.55;;;;;;;22.75;49.57;100305.94;10348179;28;20120;-72
2022/07/03 07:42:20;;;;;;;2.33;1.83;;;;;;;22.65;48.88;100305.47;10342841;28;20611;-69
2022/07/03 07:47:21;;;;;;;1.52;1.10;;;;;;;22.71;49.82;100306.56;10336251;28;20048;-68
2022/07/03 07:52:24;;;;;;;1.58;1.23;;;;;;;22.89;49.38;100314.13;10345846;28;20159;-70
2022/07/03 07:57:33;;;;;;;2.35;1.15;;;;;;;23.22;48.62;100311.56;10340501;28;20056;-70
2022/07/03 08:07:56;;;;;;;2.33;1.70;;;;;;;23.59;47.13;100305.78;10325459;28;20045;-70
2022/07/03 08:12:57;;;;;;;1.67;1.27;;;;;;;23.86;47.05;100305.81;10332976;28;20053;-71
2022/07/03 08:17:59;;;;;;;1.92;1.40;;;;;;;24.06;45.80;100300.34;10339531;28;20787;-71
2022/07/03 08:23:01;;;;;;;1.27;1.17;;;;;;;24.07;45.84;100302.03;10340689;28;20524;-71
2022/07/03 08:28:02;;;;;;;3.08;1.20;;;;;;;24.10;44.71;100286.13;10341305;28;20041;-71
2022/07/03 08:33:06;;;;;;;1.30;0.82;;;;;;;24.40;43.94;100296.50;10342715;28;20674;-71
2022/07/03 08:38:07;;;;;;;2.75;1.40;;;;;;;24.65;43.89;100293.97;10343156;28;20068;-75
2022/07/03 08:43:08;;;;;;;2.60;1.27;;;;;;;24.73;42.30;100290.16;10338793;28;20123;-74
2022/07/03 08:48:11;;;;;;;2.53;0.75;;;;;;;24.65;42.93;100288.50;10339210;28;20896;-73
2022/07/03 08:53:12;;;;;;;1.63;0.63;;;;;;;24.91;43.05;100292.16;10343152;28;20141;-70
2022/07/03 08:58:14;;;;;;;1.67;0.90;;;;;;;25.14;41.46;100279.88;10338968;28;20196;-69
2022/07/03 09:03:16;;;;;;;1.33;1.02;;;;;;;25.47;41.91;100295.19;10339481;28;20705;-71
2022/07/03 09:08:18;;;;;;;1.10;0.93;;;;;;;25.58;41.75;100286.28;10330973;28;20055;-73
2022/07/03 09:13:19;;;;;;;2.20;0.80;;;;;;;25.79;40.89;100292.41;10336238;28;20254;-71
2022/07/03 09:18:41;;;;;;;2.45;1.00;;;;;;;25.86;40.42;100290.47;10330276;28;20053;-72
2022/07/03 09:23:44;;;;;;;2.13;0.75;;;;;;;25.93;41.22;100285.81;10335859;28;20338;-72
2022/07/03 09:28:46;;;;;;;2.75;1.00;;;;;;;26.45;39.92;100282.75;10327775;28;20053;-72
2022/07/03 09:33:55;;;;;;;1.65;0.63;;;;;;;26.87;39.52;100274.69;10341846;28;20057;-73
2022/07/03 09:38:57;;;;;;;1.30;0.60;;;;;;;27.04;37.97;100266.72;10334823;28;20189;-72
2022/07/03 09:43:58;;;;;;;1.08;0.80;;;;;;;26.98;38.35;100275.84;10336364;28;20186;-70
2022/07/03 09:49:00;;;;;;;1.60;0.93;;;;;;;27.28;36.62;100272.25;10331358;28;20049;-76
2022/07/03 09:54:02;;;;;;;1.80;0.80;;;;;;;27.29;35.98;100273.91;10334225;28;22250;-73
2022/07/03 09:59:15;;;;;;;1.67;0.50;;;;;;;27.31;35.42;100260.84;10331238;28;20567;-73
2022/07/03 10:04:20;;;;;;;0.68;0.50;;;;;;;27.61;34.79;100257.22;10330425;28;20056;-73
2022/07/03 10:09:29;;;;;;;2.80;0.50;;;;;;;27.98;35.01;100248.81;10333598;28;20645;-72
2022/07/03 10:14:32;;;;;;;0.77;0.50;;;;;;;28.37;34.27;100262.81;10340439;28;20810;-72
2022/07/03 10:19:38;;;;;;;1.33;0.50;;;;;;;28.29;34.40;100252.25;10341146;28;20199;-73
2022/07/03 10:24:42;;;;;;;1.00;0.40;;;;;;;28.41;31.94;100247.56;10342309;28;20045;-72
2022/07/03 10:29:46;;;;;;;1.05;0.30;;;;;;;28.34;31.39;100247.69;10346025;28;20401;-73
2022/07/03 10:34:47;;;;;;;1.50;0.40;;;;;;;28.68;32.67;100247.03;10343494;28;20680;-76
2022/07/03 10:45:25;;;;;;;2.15;0.40;;;;;;;29.23;30.93;100243.72;10339094;28;20111;-75
2022/07/03 10:50:26;;;;;;;0.90;0.60;;;;;;;29.52;31.85;100240.88;10345890;28;20049;-72
2022/07/03 10:55:28;;;;;;;2.90;0.53;;;;;;;29.63;29.71;100247.34;10342768;28;20114;-75
2022/07/03 11:00:29;;;;;;;0.40;0.20;;;;;;;29.72;28.67;100245.03;10342892;28;20283;-73
2022/07/03 11:05:40;;;;;;;2.50;0.23;;;;;;;29.80;29.52;100230.91;10339966;28;20173;-72
2022/07/03 11:10:43;;;;;;;0.45;0.28;;;;;;;30.10;30.05;100226.94;10331294;28;20520;-74
2022/07/03 11:15:48;;;;;;;1.17;0.45;;;;;;;29.90;30.28;100222.81;10332175;28;20049;-74
2022/07/03 11:20:50;;;;;;;0.85;0.43;;;;;;;30.28;29.04;100229.38;10336482;28;20134;-75
2022/07/03 11:25:53;;;;;;;1.48;0.30;;;;;;;30.38;30.35;100225.09;10333392;28;20145;-74
2022/07/03 11:36:22;;;;;;;1.42;0.52;;;;;;;31.06;29.21;100205.53;10333757;28;20053;-71
2022/07/03 11:41:26;;;;;;;0.90;0.70;;;;;;;31.37;28.49;100203.88;10334030;28;20137;-72
2022/07/03 11:46:30;;;;;;;0.80;0.30;;;;;;;31.73;28.76;100199.47;10338377;28;20099;-74
2022/07/03 11:51:35;;;;;;;2.00;0.60;;;;;;;31.33;28.45;100187.09;10342763;28;20408;-72
2022/07/03 11:56:38;;;;;;;1.17;0.40;;;;;;;30.71;28.71;100191.19;10343461;28;20057;-72
2022/07/03 12:01:40;;;;;;;1.90;0.40;;;;;;;30.89;28.28;100181.72;10336899;28;20242;-72
2022/07/03 12:06:49;;;;;;;1.23;0.30;;;;;;;31.13;27.78;100185.00;10341493;28;20140;-70
2022/07/03 12:12:03;;;;;;;0.60;0.13;;;;;;;31.13;27.36;100173.19;10342668;28;20253;-72
2022/07/03 12:17:06;;;;;;;1.45;0.30;;;;;;;30.93;27.16;100171.06;10341292;28;20498;-73
2022/07/03 12:22:08;;;;;;;1.13;0.25;;;;;;;31.07;26.76;100168.75;10339505;28;20099;-72
2022/07/03 12:27:09;;;;;;;0.65;0.17;;;;;;;31.02;26.03;100164.84;10340976;28;20092;-72
2022/07/03 12:32:12;;;;;;;1.35;0.10;;;;;;;30.98;26.63;100157.34;10344732;28;20053;-73
2022/07/03 12:37:13;;;;;;;1.58;0.20;;;;;;;31.06;25.25;100158.81;10349267;28;21574;-73
2022/07/03 12:42:19;;;;;;;1.33;0.40;;;;;;;31.15;25.76;100151.75;10353457;28;20793;-74
2022/07/03 12:47:21;;;;;;;0.63;0.25;;;;;;;31.07;25.17;100155.00;10333863;28;20140;-73
2022/07/03 12:52:22;;;;;;;0.88;0.30;;;;;;;31.18;25.71;100134.72;10343673;28;20188;-73
2022/07/03 13:02:48;;;;;;;1.38;0.43;;;;;;;31.43;24.27;100134.09;10341134;28;20294;-72
2022/07/03 13:07:54;;;;;;;1.40;0.20;;;;;;;31.34;24.17;100122.75;10338665;28;20080;-73
2022/07/03 13:12:57;;;;;;;0.55;0.28;;;;;;;31.54;25.55;100118.47;10329206;28;20698;-72
2022/07/03 13:18:01;;;;;;;1.25;0.20;;;;;;;31.61;25.34;100124.59;10335509;28;20138;-71
2022/07/03 13:23:04;;;;;;;1.52;0.20;;;;;;;31.38;25.61;100107.38;10339208;28;20077;-75
2022/07/03 13:28:08;;;;;;;1.65;0.20;;;;;;;31.44;26.90;100115.69;10339250;28;20508;-72
2022/07/03 13:33:10;;;;;;;0.57;0.17;;;;;;;31.60;25.80;100114.66;10338255;28;20604;-73
2022/07/03 13:38:11;;;;;;;1.13;0.20;;;;;;;31.40;25.00;100106.28;10343237;28;20183;-72
2022/07/03 13:43:13;;;;;;;0.60;0.20;;;;;;;31.50;25.50;100114.63;10341409;28;20881;-71
2022/07/03 13:48:14;;;;;;;1.35;0.30;;;;;;;31.49;25.91;100107.44;10344432;28;20596;-76
2022/07/03 13:53:16;;;;;;;2.28;0.30;;;;;;;31.33;25.88;100121.09;10344293;28;20041;-72
2022/07/03 13:58:17;;;;;;;0.95;0.40;;;;;;;31.22;26.83;100105.63;10344458;28;20160;-71
2022/07/03 14:03:19;;;;;;;1.90;0.22;;;;;;;31.27;26.48;100107.56;10338987;28;20132;-70
2022/07/03 14:08:21;;;;;;;2.40;0.20;;;;;;;31.27;26.71;100108.44;10334021;28;20045;-72
2022/07/03 14:13:22;;;;;;;1.80;0.50;;;;;;;31.16;26.13;100104.75;10337855;28;20626;-72
2022/07/03 14:18:23;;;;;;;1.92;0.20;;;;;;;31.16;26.40;100104.75;10335109;28;20054;-71
2022/07/03 14:23:25;;;;;;;1.33;0.20;;;;;;;31.16;26.36;100087.44;10339642;28;20388;-73
2022/07/03 14:33:53;;;;;;;0.80;0.20;;;;;;;30.77;26.22;100093.16;10341143;28;20097;-72
2022/07/03 14:38:54;;;;;;;0.65;0.20;;;;;;;30.65;26.88;100094.16;10338321;28;20046;-72
2022/07/03 14:43:55;;;;;;;2.47;0.30;;;;;;;30.74;26.92;100086.25;10336313;28;20053;-70
2022/07/03 14:48:57;;;;;;;1.15;0.10;;;;;;;30.72;26.26;100087.63;10334251;28;20056;-72
2022/07/03 14:53:58;;;;;;;1.80;0.30;;;;;;;30.69;26.69;100099.97;10340251;28;20279;-72
2022/07/03 14:59:07;;;;;;;1.83;0.20;;;;;;;30.78;25.86;100086.59;10344700;28;20295;-72
2022/07/03 15:04:19;;;;;;;1.60;0.50;;;;;;;30.80;26.44;100079.72;10335757;28;20160;-72
2022/07/03 15:09:32;;;;;;;2.45;0.30;;;;;;;30.65;26.31;100074.94;10336477;28;20780;-73
2022/07/03 15:14:33;;;;;;;;;;;;;;;30.59;25.01;100089.72;10332584;28;20046;-72
2022/07/03 15:19:43;;;;;;;1.10;0.20;;;;;;;30.50;25.22;100085.78;10342114;28;20783;-73
2022/07/03 15:24:52;;;;;;;0.63;0.20;;;;;;;30.49;25.53;100078.63;10341289;28;20050;-72
2022/07/03 15:29:54;;;;;;;1.15;0.40;;;;;;;30.44;26.15;100065.66;10336319;28;20128;-72
2022/07/03 15:34:56;;;;;;;1.52;0.30;;;;;;;30.40;26.05;100048.09;10337822;28;20069;-72
2022/07/03 15:40:05;;;;;;;1.60;0.20;;;;;;;30.42;25.23;100065.13;10341280;28;20132;-72
2022/07/03 15:45:08;;;;;;;2.05;0.20;;;;;;;30.47;25.82;100065.16;10341431;28;20371;-71
2022/07/03 15:50:21;;;;;;;0.75;0.13;;;;;;;30.45;25.82;100063.78;10338701;28;20218;-73
2022/07/03 15:55:23;;;;;;;0.82;0.45;;;;;;;30.30;25.87;100051.53;10331837;28;20063;-73
2022/07/03 16:00:26;;;;;;;1.05;0.25;;;;;;;30.36;26.35;100057.06;10341030;28;20052;-73
2022/07/03 16:05:33;;;;;;;1.40;0.28;;;;;;;30.37;24.90;100056.81;10359050;28;20125;-73
2022/07/03 16:10:36;;;;;;;0.55;0.20;;;;;;;30.11;25.07;100051.03;10349996;28;20067;-73
2022/07/03 16:15:39;;;;;;;1.63;0.22;;;;;;;30.00;25.46;100037.50;10330559;28;20053;-74
2022/07/03 16:20:44;;;;;;;0.70;0.28;;;;;;;29.93;25.08;100038.50;10336587;28;20090;-70
2022/07/03 16:25:46;;;;;;;2.33;0.40;;;;;;;29.90;24.76;100028.03;10336120;28;20060;-73
2022/07/03 16:30:49;;;;;;;1.65;0.70;;;;;;;29.80;25.27;100036.16;10338632;28;20288;-73
2022/07/03 16:35:59;;;;;;;1.13;0.50;;;;;;;29.78;24.77;100032.81;10330648;28;20068;-70
2022/07/03 16:41:02;;;;;;;0.50;0.30;;;;;;;29.71;24.80;100033.03;10327063;28;20062;-72
2022/07/03 16:46:08;;;;;;;1.13;0.25;;;;;;;29.72;24.95;100031.09;10339917;28;20068;-71
2022/07/03 16:51:13;;;;;;;0.95;0.52;;;;;;;29.70;24.88;100028.63;10334003;28;20183;-71
2022/07/03 16:56:16;;;;;;;0.70;0.40;;;;;;;29.72;24.55;100025.63;10329512;28;20761;-72
2022/07/03 17:01:18;;;;;;;1.02;0.73;;;;;;;29.75;25.53;100025.09;10335138;28;20209;-71
2022/07/03 17:06:21;;;;;;;1.98;0.90;;;;;;;29.73;25.57;100014.38;10329128;28;20061;-72
2022/07/03 17:11:23;;;;;;;1.85;0.70;;;;;;;29.83;25.42;100019.22;10339612;28;20164;-74
2022/07/03 17:16:26;;;;;;;;;;;;;;;29.79;24.88;100026.25;10335748;28;20057;-74
2022/07/03 17:21:30;;;;;;;0.70;0.30;;;;;;;29.65;24.72;100017.59;10349542;28;19932;-71
2022/07/03 17:26:33;;;;;;;0.80;0.40;;;;;;;29.50;25.15;100022.88;10329011;28;20206;-71
2022/07/03 17:31:39;;;;;;;0.95;0.30;;;;;;;29.38;24.83;100023.00;10313397;28;20057;-72
2022/07/03 17:36:45;;;;;;;0.95;0.30;;;;;;;29.24;24.99;100031.56;10313297;28;20060;-75
2022/07/03 17:41:48;;;;;;;1.83;0.65;;;;;;;29.05;25.53;100016.47;10318093;28;20139;-72
2022/07/03 17:46:52;;;;;;;1.25;0.43;;;;;;;29.02;25.74;100016.97;10312936;28;20568;-73
2022/07/03 17:51:55;;;;;;;1.15;0.28;;;;;;;28.98;25.77;100032.28;10317735;28;20590;-74
2022/07/03 17:57:34;;;;;;;0.75;0.40;;;;;;;28.87;26.04;100025.78;10321186;28;20053;-71
2022/07/03 18:02:19;;;;;;;1.55;0.30;;;;;;;28.69;26.00;100014.03;10332653;28;20060;-71
2022/07/03 18:07:40;;;;;;;2.88;0.52;;;;;;;28.64;26.41;100022.16;10374184;28;20045;-73
2022/07/03 18:13:06;;;;;;;1.25;0.57;;;;;;;28.56;26.88;100019.81;10343513;28;20093;-72
2022/07/03 18:18:17;;;;;;;0.75;0.28;;;;;;;28.44;26.93;100016.34;10346476;28;20151;-71
2022/07/03 18:23:20;;;;;;;2.33;0.75;;;;;;;28.38;27.19;100020.88;10343054;28;20049;-71
2022/07/03 18:28:24;;;;;;;2.10;0.55;;;;;;;28.31;27.70;100022.94;10338942;28;20053;-73
2022/07/03 18:33:29;;;;;;;1.15;0.70;;;;;;;28.25;28.27;100032.13;10346296;28;20133;-72
2022/07/03 18:38:34;;;;;;;0.80;0.30;;;;;;;28.15;28.84;100030.03;10343572;28;20049;-72
2022/07/03 18:43:36;;;;;;;0.93;0.40;;;;;;;28.08;28.96;100035.66;10336322;28;20050;-74
2022/07/03 18:48:38;;;;;;;1.77;0.45;;;;;;;28.02;29.57;100039.38;10340144;28;20071;-72
2022/07/03 18:53:46;;;;;;;1.77;0.45;;;;;;;27.88;30.00;100030.63;10323251;28;20116;-72
2022/07/03 18:58:58;;;;;;;2.35;0.50;;;;;;;27.82;30.64;100046.09;10344944;28;20117;-71
2022/07/03 19:04:02;;;;;;;3.20;0.60;;;;;;;27.69;31.15;100046.34;10333655;28;20046;-70
2022/07/03 19:09:06;;;;;;;3.10;0.50;;;;;;;27.53;31.93;100045.19;10342138;28;21064;-71
2022/07/03 19:14:11;;;;;;;3.55;0.60;;;;;;;27.33;32.91;100048.31;10342958;28;20516;-72
2022/07/03 19:19:15;;;;;;;1.48;0.70;;;;;;;27.15;33.71;100055.53;10340086;28;20110;-73
2022/07/03 19:24:17;;;;;;;0.98;0.30;;;;;;;27.07;33.48;100053.19;10349570;28;20417;-72
2022/07/03 19:29:18;;;;;;;1.83;0.90;;;;;;;26.90;34.85;100053.06;10347143;28;20828;-72
2022/07/03 19:34:21;;;;;;;5.57;0.77;;;;;;;26.84;35.31;100064.09;10342103;28;20064;-74
2022/07/03 19:39:22;;;;;;;2.53;0.73;;;;;;;26.72;35.88;100066.78;10334646;28;20049;-73
2022/07/03 19:44:24;;;;;;;1.13;0.68;;;;;;;26.64;36.92;100081.59;10312175;28;20046;-71
2022/07/03 19:49:25;;;;;;;1.70;0.70;;;;;;;26.31;37.31;100088.38;10344307;28;20080;-76
2022/07/03 19:54:27;;;;;;;2.05;0.88;;;;;;;26.11;38.23;100086.75;10336836;28;20050;-71
2022/07/03 19:59:28;;;;;;;1.30;0.60;;;;;;;26.05;38.92;100101.31;10333347;28;20564;-72
2022/07/03 20:04:29;;;;;;;1.70;1.00;;;;;;;25.91;39.02;100118.84;10337170;28;20795;-73
2022/07/03 20:09:31;;;;;;;1.98;0.90;;;;;;;25.77;40.55;100131.81;10337970;28;20141;-72
2022/07/03 20:14:32;;;;;;;2.10;0.75;;;;;;;25.56;40.57;100133.09;10334876;28;20518;-70
2022/07/03 20:19:34;;;;;;;2.88;1.00;;;;;;;25.38;41.10;100161.97;10335317;28;20097;-71
2022/07/03 20:24:35;;;;;;;2.53;0.95;;;;;;;25.32;40.91;100165.56;10336542;28;20152;-70
2022/07/03 20:29:42;;;;;;;2.30;0.75;;;;;;;25.33;40.88;100194.50;10337670;28;20052;-70
2022/07/03 20:34:44;;;;;;;5.25;4.30;;;;;;;25.32;43.19;100183.81;10340260;28;20045;-75
2022/07/03 20:39:46;;;;;;;3.80;1.02;;;;;;;25.10;41.55;100186.06;10343605;28;20778;-71
2022/07/03 20:44:50;;;;;;;2.92;0.80;;;;;;;24.95;42.51;100189.94;10344667;28;20639;-71
2022/07/03 20:50:08;;;;;;;2.60;1.15;;;;;;;24.79;43.62;100195.91;10343679;28;20524;-74
2022/07/03 20:55:10;;;;;;;1.92;0.50;;;;;;;24.66;43.77;100192.19;10344451;28;20049;-75
2022/07/03 21:00:14;;;;;;;1.95;0.88;;;;;;;24.68;42.94;100211.88;10335979;28;20053;-71
2022/07/03 21:05:15;;;;;;;2.63;0.77;;;;;;;24.68;42.88;100219.19;10337629;28;20057;-72
2022/07/03 21:11:31;;;;;;;3.58;0.60;;;;;;;24.65;42.70;100230.50;10336588;28;20164;-73
2022/07/03 21:15:38;;;;;;;2.22;0.77;;;;;;;24.45;43.11;100222.41;10348612;28;20053;-72
2022/07/03 21:20:39;;;;;;;1.90;0.68;;;;;;;24.39;43.77;100239.59;10348842;28;20069;-73
2022/07/03 21:25:41;;;;;;;1.80;0.80;;;;;;;24.24;43.36;100237.97;10346344;28;20069;-75
2022/07/03 21:30:42;;;;;;;1.00;0.47;;;;;;;23.90;44.06;100242.66;10349889;28;20203;-75
2022/07/03 21:35:44;;;;;;;3.08;0.70;;;;;;;23.96;44.90;100258.13;10353498;28;20533;-72
2022/07/03 21:40:45;;;;;;;3.55;1.52;;;;;;;23.98;44.44;100277.75;10349512;28;20128;-73
2022/07/03 21:45:46;;;;;;;5.68;1.50;;;;;;;23.92;44.54;100284.06;10346214;28;20164;-74
2022/07/03 21:50:49;;;;;;;3.72;0.88;;;;;;;23.89;44.63;100286.38;10341226;28;20798;-72
2022/07/03 21:55:51;;;;;;;2.47;0.87;;;;;;;23.89;44.73;100305.41;10347910;28;20158;-72
2022/07/03 22:00:52;;;;;;;2.75;0.77;;;;;;;23.76;44.77;100309.72;10349145;28;20813;-73
2022/07/03 22:05:53;;;;;;;1.65;0.80;;;;;;;23.77;45.21;100313.31;10353848;28;20296;-71
2022/07/03 22:10:55;;;;;;;3.03;1.05;;;;;;;23.71;44.98;100311.44;10343043;28;20049;-72
2022/07/03 22:15:56;;;;;;;2.22;0.77;;;;;;;23.51;45.28;100292.38;10357868;28;20214;-72
2022/07/03 22:20:59;;;;;;;1.52;0.70;;;;;;;23.42;45.11;100310.75;10350835;28;20096;-73
2022/07/03 22:26:00;;;;;;;2.58;0.65;;;;;;;23.21;45.75;100293.59;10349621;28;20056;-72
2022/07/03 22:36:22;;;;;;;2.22;0.70;;;;;;;23.15;45.41;100316.16;10354408;28;20050;-73
2022/07/03 22:41:23;;;;;;;1.42;0.63;;;;;;;23.03;45.41;100304.16;10351034;28;20128;-72
2022/07/03 22:46:25;;;;;;;1.15;0.60;;;;;;;23.08;45.48;100310.66;10352575;28;20070;-72
2022/07/03 22:51:27;;;;;;;1.80;0.68;;;;;;;23.08;45.47;100312.53;10351664;28;20132;-71
2022/07/03 22:56:28;;;;;;;1.55;0.60;;;;;;;23.03;45.16;100307.72;10351906;28;20050;-72
2022/07/03 23:01:32;;;;;;;1.55;0.52;;;;;;;23.00;45.03;100312.72;10350905;28;20132;-71
2022/07/03 23:06:34;;;;;;;2.25;0.70;;;;;;;22.91;45.49;100326.47;10351224;28;20124;-71
2022/07/03 23:11:35;;;;;;;2.05;0.60;;;;;;;22.73;45.57;100316.16;10347808;28;20140;-73
2022/07/03 23:16:37;;;;;;;1.02;0.52;;;;;;;22.78;45.70;100318.28;10354483;28;20053;-71
2022/07/03 23:21:38;;;;;;;2.20;0.55;;;;;;;22.82;45.46;100330.41;10346996;28;20054;-72
2022/07/03 23:26:39;;;;;;;0.45;0.35;;;;;;;22.80;45.16;100318.91;10353499;28;20777;-72
2022/07/03 23:31:41;;;;;;;1.25;0.50;;;;;;;22.56;45.55;100315.69;10349946;28;20640;-72
2022/07/03 23:36:43;;;;;;;1.95;0.50;;;;;;;22.64;45.13;100330.09;10351293;28;20053;-70
2022/07/03 23:41:44;;;;;;;3.03;0.60;;;;;;;22.57;45.05;100324.66;10348528;28;20204;-72
2022/07/03 23:46:46;;;;;;;2.13;0.70;;;;;;;22.65;45.21;100331.78;10353031;28;20515;-71
2022/07/03 23:51:47;;;;;;;1.58;0.68;;;;;;;22.59;45.22;100330.69;10350190;28;20520;-72